Time;durP1;ratioP1;P1;durP2;ratioP2;P2;SDS_P1;SDS_P2;PMS_P1;PMS_P2;Temp;Humidity;BMP_temperature;BMP_pressure;BME280_temperature;BME280_humidity;BME280_pressure;Samples;Min_cycle;Max_cycle;Signal;HPM_P1;HPM_P2
2022/07/28 00:02:19;;;;;;;24.30;23.10;;;18.80;98.40;;;;;;5057887;28;20159;-94
2022/07/28 00:04:45;;;;;;;25.83;24.60;;;18.80;99.00;;;;;;5058093;28;20215;-92
2022/07/28 00:07:11;;;;;;;26.60;25.20;;;18.80;99.30;;;;;;5057705;28;20151;-93
2022/07/28 00:09:43;;;;;;;28.00;26.40;;;18.80;99.30;;;;;;5058015;28;20159;-93
2022/07/28 00:12:09;;;;;;;26.73;25.17;;;18.90;99.10;;;;;;5058107;28;20173;-92
2022/07/28 00:14:37;;;;;;;27.63;26.13;;;18.90;99.00;;;;;;5058027;28;20152;-93
2022/07/28 00:17:03;;;;;;;29.90;28.03;;;18.80;99.20;;;;;;5057406;28;20177;-93
2022/07/28 00:19:30;;;;;;;27.53;26.17;;;18.80;99.50;;;;;;5057799;28;20174;-94
2022/07/28 00:21:57;;;;;;;25.87;24.47;;;18.60;99.60;;;;;;5057954;28;20147;-93
2022/07/28 00:24:24;;;;;;;24.07;22.50;;;18.60;99.90;;;;;;5058169;28;20143;-93
2022/07/28 00:26:53;;;;;;;24.73;23.53;;;18.50;99.90;;;;;;5057650;28;20167;-94
2022/07/28 00:29:21;;;;;;;17.43;16.40;;;18.40;99.90;;;;;;5058007;28;20148;-94
2022/07/28 00:31:55;;;;;;;14.07;13.07;;;18.50;99.90;;;;;;5057865;28;20221;-93
2022/07/28 00:34:21;;;;;;;10.67;10.07;;;18.40;99.90;;;;;;5057726;28;20227;-93
2022/07/28 00:36:47;;;;;;;6.63;6.03;;;18.40;99.90;;;;;;5057332;28;20158;-93
2022/07/28 00:39:14;;;;;;;4.88;4.65;;;18.40;99.90;;;;;;5057538;28;20442;-93
2022/07/28 00:41:44;;;;;;;4.97;4.70;;;18.40;99.90;;;;;;5057427;28;20139;-94
2022/07/28 00:44:17;;;;;;;4.87;4.47;;;18.30;99.90;;;;;;5057714;28;20152;-93
2022/07/28 00:46:46;;;;;;;5.70;5.30;;;18.30;99.90;;;;;;5056968;28;20171;-93
2022/07/28 00:49:18;;;;;;;6.40;5.87;;;18.20;99.90;;;;;;5057611;28;20222;-94
2022/07/28 00:51:59;;;;;;;7.17;6.47;;;18.20;99.90;;;;;;5057837;28;20143;-93
2022/07/28 00:54:25;;;;;;;6.93;6.47;;;18.20;99.90;;;;;;5057665;28;20148;-94
2022/07/28 00:56:58;;;;;;;6.67;6.27;;;18.10;99.90;;;;;;5057344;28;20178;-93
2022/07/28 00:59:24;;;;;;;8.73;8.00;;;18.10;99.90;;;;;;5057537;28;20234;-92
2022/07/28 01:01:54;;;;;;;8.20;7.37;;;18.10;99.90;;;;;;5057036;28;20144;-93
2022/07/28 01:04:31;;;;;;;;;;;;;;;;;;;;;
2022/07/28 01:07:07;;;;;;;34.83;33.13;;;18.00;99.90;;;;;;5057439;28;20167;-94
2022/07/28 01:09:52;;;;;;;34.57;32.67;;;17.90;99.90;;;;;;5057200;28;20175;-93
2022/07/28 01:12:45;;;;;;;32.00;30.37;;;17.90;99.90;;;;;;5060973;28;20155;-92
2022/07/28 01:15:18;;;;;;;27.27;25.87;;;17.80;99.90;;;;;;5054005;28;20170;-93
2022/07/28 01:18:06;;;;;;;18.17;17.30;;;17.80;99.90;;;;;;5060439;28;20144;-94
2022/07/28 01:20:51;;;;;;;13.40;12.33;;;17.70;99.90;;;;;;5060789;28;20178;-93
2022/07/28 01:23:32;;;;;;;13.33;12.73;;;17.60;99.90;;;;;;5060675;28;20143;-92
2022/07/28 01:26:36;;;;;;;6.73;6.13;;;17.70;99.90;;;;;;5060822;28;20144;-93
2022/07/28 01:29:23;;;;;;;8.50;7.97;;;17.70;99.90;;;;;;5060343;28;20155;-93
2022/07/28 01:32:25;;;;;;;6.07;5.67;;;17.60;99.90;;;;;;5060602;28;20153;-93
2022/07/28 01:35:04;;;;;;;6.40;5.87;;;17.50;99.90;;;;;;5053613;28;20170;-93
2022/07/28 01:37:37;;;;;;;6.50;6.00;;;17.40;99.90;;;;;;5060157;28;20150;-93
2022/07/28 01:40:06;;;;;;;7.07;6.47;;;17.30;99.90;;;;;;5060354;28;20194;-93
2022/07/28 01:42:36;;;;;;;7.73;7.23;;;17.30;99.90;;;;;;5060053;28;20143;-93
2022/07/28 01:45:04;;;;;;;17.13;15.93;;;17.20;99.90;;;;;;5060242;28;20161;-93
2022/07/28 01:47:32;;;;;;;10.03;9.53;;;17.20;99.90;;;;;;5059881;28;20143;-94
2022/07/28 01:50:02;;;;;;;18.60;17.13;;;17.20;99.90;;;;;;5060327;28;20155;-93
2022/07/28 01:52:33;;;;;;;19.43;18.20;;;17.20;99.90;;;;;;5060458;28;20144;-93
2022/07/28 01:55:05;;;;;;;13.27;12.10;;;17.20;99.90;;;;;;5060243;28;20147;-93
2022/07/28 01:57:33;;;;;;;13.67;12.50;;;17.10;99.90;;;;;;5059508;28;20148;-92
2022/07/28 02:00:00;;;;;;;13.93;13.23;;;17.00;99.90;;;;;;5060064;28;20163;-93
2022/07/28 02:02:30;;;;;;;13.87;13.10;;;16.90;99.90;;;;;;5043686;28;20163;-93
2022/07/28 02:05:01;;;;;;;15.23;14.17;;;16.90;99.90;;;;;;5060061;28;20148;-93
2022/07/28 02:07:31;;;;;;;18.17;16.93;;;16.90;99.90;;;;;;5059419;28;20171;-94
2022/07/28 02:10:02;;;;;;;18.57;17.50;;;16.90;99.90;;;;;;5059988;28;20147;-94
2022/07/28 02:12:38;;;;;;;17.80;16.70;;;16.90;99.90;;;;;;5059820;28;20226;-93
2022/07/28 02:15:15;;;;;;;15.53;14.50;;;16.90;99.90;;;;;;5059931;28;20239;-92
2022/07/28 02:17:53;;;;;;;14.70;13.87;;;16.90;99.90;;;;;;5058597;28;20171;-92
2022/07/28 02:20:30;;;;;;;11.97;11.03;;;16.80;99.90;;;;;;5059253;28;20202;-93
2022/07/28 02:23:00;;;;;;;14.37;13.10;;;16.70;99.90;;;;;;5058971;28;20167;-93
2022/07/28 02:25:29;;;;;;;11.97;11.30;;;16.60;99.90;;;;;;5059565;28;20219;-94
2022/07/28 02:28:14;;;;;;;6.03;5.43;;;16.50;99.90;;;;;;5059058;28;20178;-93
2022/07/28 02:31:00;;;;;;;6.43;5.87;;;16.50;99.90;;;;;;5059727;28;20145;-93
2022/07/28 02:33:36;;;;;;;9.23;5.80;;;16.50;99.90;;;;;;5059505;28;20159;-93
2022/07/28 02:36:26;;;;;;;6.07;5.53;;;16.50;99.90;;;;;;5059134;28;20148;-93
2022/07/28 02:38:58;;;;;;;6.23;5.73;;;16.50;99.90;;;;;;5052466;28;20191;-94
2022/07/28 02:41:38;;;;;;;6.60;6.10;;;16.50;99.90;;;;;;5059220;28;20147;-92
2022/07/28 02:44:11;;;;;;;7.13;6.70;;;16.40;99.90;;;;;;5059096;28;20144;-93
2022/07/28 02:47:04;;;;;;;7.60;7.10;;;16.30;99.90;;;;;;5059089;28;20143;-93
2022/07/28 02:49:34;;;;;;;10.57;8.27;;;16.20;99.90;;;;;;5059007;28;20156;-94
2022/07/28 02:52:06;;;;;;;10.00;9.30;;;16.10;99.90;;;;;;5059214;28;20152;-93
2022/07/28 02:54:42;;;;;;;13.93;13.13;;;16.10;99.90;;;;;;5059005;28;20162;-92
2022/07/28 02:57:16;;;;;;;19.83;18.73;;;16.10;99.90;;;;;;5058702;28;20151;-91
2022/07/28 02:59:53;;;;;;;26.00;24.50;;;16.10;99.90;;;;;;5059260;28;20250;-94
2022/07/28 03:02:23;;;;;;;28.73;26.93;;;16.10;99.90;;;;;;5058902;28;20151;-93
2022/07/28 03:04:57;;;;;;;29.73;28.23;;;16.10;99.90;;;;;;5058527;28;20159;-93
2022/07/28 03:07:29;;;;;;;31.00;29.20;;;16.00;99.90;;;;;;5058043;28;20226;-93
2022/07/28 03:09:59;;;;;;;27.30;25.73;;;16.00;99.90;;;;;;5058787;28;20214;-92
2022/07/28 03:12:32;;;;;;;16.77;15.97;;;16.00;99.90;;;;;;5058691;28;20201;-94
2022/07/28 03:15:01;;;;;;;20.73;19.67;;;15.90;99.90;;;;;;5058828;28;20158;-92
2022/07/28 03:17:40;;;;;;;12.23;11.40;;;15.90;99.90;;;;;;5057964;28;20175;-93
2022/07/28 03:20:08;;;;;;;16.13;14.70;;;15.90;99.90;;;;;;5058102;28;20170;-93
2022/07/28 03:22:34;;;;;;;16.00;14.93;;;15.80;99.90;;;;;;5058181;28;20140;-93
2022/07/28 03:25:22;;;;;;;12.77;12.03;;;15.70;99.90;;;;;;5058636;28;20155;-93
2022/07/28 03:27:57;;;;;;;10.17;9.57;;;15.60;99.90;;;;;;5058122;28;20158;-93
2022/07/28 03:30:44;;;;;;;9.87;8.87;;;15.60;99.90;;;;;;5058272;28;20159;-93
2022/07/28 03:33:15;;;;;;;8.57;8.03;;;15.60;99.90;;;;;;5057597;28;20215;-93
2022/07/28 03:35:50;;;;;;;9.43;8.73;;;15.60;99.90;;;;;;5058469;28;20234;-93
2022/07/28 03:38:24;;;;;;;8.00;7.57;;;15.60;99.90;;;;;;5057080;28;20147;-93
2022/07/28 03:40:55;;;;;;;8.93;8.13;;;15.60;99.90;;;;;;5057129;28;20227;-93
2022/07/28 03:43:28;;;;;;;8.13;7.57;;;15.60;99.90;;;;;;5058090;28;20151;-93
2022/07/28 03:45:56;;;;;;;9.07;8.27;;;15.70;99.90;;;;;;5057739;28;20143;-93
2022/07/28 03:48:34;;;;;;;9.60;8.70;;;15.60;99.90;;;;;;5057298;28;20162;-94
2022/07/28 03:51:10;;;;;;;9.07;8.37;;;15.60;99.90;;;;;;5058112;28;20235;-93
2022/07/28 03:53:39;;;;;;;9.53;8.73;;;15.60;99.90;;;;;;5056144;28;20227;-93
2022/07/28 03:56:06;;;;;;;10.17;9.47;;;15.60;99.90;;;;;;5067788;28;20163;-93
2022/07/28 03:58:32;;;;;;;11.60;10.70;;;15.70;99.90;;;;;;5077900;28;20155;-93
2022/07/28 04:00:58;;;;;;;28.00;26.50;;;15.60;99.90;;;;;;5077873;28;20141;-93
2022/07/28 04:03:26;;;;;;;48.43;45.63;;;15.50;99.90;;;;;;5078123;28;20237;-92
2022/07/28 04:05:57;;;;;;;30.60;28.03;;;15.50;99.90;;;;;;5077563;28;20143;-93
2022/07/28 04:08:42;;;;;;;75.07;70.80;;;15.60;99.90;;;;;;5077903;28;20150;-92
2022/07/28 04:11:11;;;;;;;150.37;142.10;;;15.50;99.90;;;;;;5077476;28;20163;-92
2022/07/28 04:13:40;;;;;;;93.27;88.13;;;15.50;99.90;;;;;;5057949;28;20144;-93
2022/07/28 04:16:06;;;;;;;138.77;130.53;;;15.50;99.90;;;;;;5057968;28;20178;-92
2022/07/28 04:18:36;;;;;;;171.87;161.93;;;15.50;99.90;;;;;;5057629;28;20144;-92
2022/07/28 04:21:06;;;;;;;63.07;59.67;;;15.50;99.90;;;;;;5058036;28;20152;-92
2022/07/28 04:23:32;;;;;;;67.80;64.07;;;15.40;99.90;;;;;;5057919;28;20163;-92
2022/07/28 04:26:01;;;;;;;89.83;85.07;;;15.40;99.90;;;;;;5057878;28;20143;-92
2022/07/28 04:28:27;;;;;;;105.40;99.50;;;15.40;99.90;;;;;;5057615;28;20143;-93
2022/07/28 04:30:53;;;;;;;101.83;96.50;;;15.50;99.90;;;;;;5057779;28;20454;-91
2022/07/28 04:33:25;;;;;;;34.10;32.20;;;15.50;99.90;;;;;;5057952;28;20164;-92
2022/07/28 04:35:52;;;;;;;29.70;27.73;;;15.50;99.90;;;;;;5057782;28;20151;-93
2022/07/28 04:38:27;;;;;;;34.10;32.17;;;15.70;99.90;;;;;;5057480;28;20136;-94
2022/07/28 04:41:03;;;;;;;44.33;41.53;;;15.70;99.90;;;;;;5057920;28;20152;-94
2022/07/28 04:43:31;;;;;;;22.77;21.50;;;15.80;99.90;;;;;;5057697;28;20155;-95
2022/07/28 04:46:04;;;;;;;18.57;16.90;;;15.90;99.90;;;;;;5060755;28;20135;-94
2022/07/28 04:48:40;;;;;;;20.03;18.83;;;15.90;99.90;;;;;;5069151;28;20181;-93
2022/07/28 04:51:23;;;;;;;13.80;12.90;;;15.90;99.90;;;;;;5081708;28;20144;-94
2022/07/28 04:54:01;;;;;;;12.60;11.57;;;16.00;99.90;;;;;;5081253;28;20176;-94
2022/07/28 04:56:28;;;;;;;12.70;11.67;;;16.00;99.90;;;;;;5081481;28;20173;-94
2022/07/28 04:58:57;;;;;;;12.37;11.27;;;16.00;99.90;;;;;;5081100;28;20289;-95
2022/07/28 05:02:02;;;;;;;9.77;8.73;;;16.10;99.90;;;;;;5081347;28;20147;-94
2022/07/28 05:04:34;;;;;;;7.80;7.20;;;16.10;99.90;;;;;;5079557;28;20163;-94
2022/07/28 05:07:20;;;;;;;8.50;7.70;;;16.30;99.90;;;;;;5081211;28;20158;-92
2022/07/28 05:09:48;;;;;;;23.90;22.57;;;16.50;99.90;;;;;;5080705;28;20159;-95
2022/07/28 05:12:17;;;;;;;133.40;126.63;;;16.70;99.90;;;;;;5079963;28;20227;-94
2022/07/28 05:14:44;;;;;;;92.47;87.83;;;17.00;99.90;;;;;;5080770;28;20210;-94
2022/07/28 05:17:27;;;;;;;44.10;41.57;;;17.20;99.90;;;;;;5080708;28;20154;-95
2022/07/28 05:20:03;;;;;;;10.60;9.57;;;17.60;99.90;;;;;;5080544;28;20186;-96
2022/07/28 05:22:49;;;;;;;51.43;48.87;;;18.10;99.90;;;;;;5080003;28;20155;-96
2022/07/28 05:25:42;;;;;;;51.17;48.33;;;18.70;99.90;;;;;;5078536;28;20159;-93
2022/07/28 05:28:12;;;;;;;12.60;11.80;;;19.40;99.90;;;;;;5080657;28;20150;-94
2022/07/28 05:31:06;;;;;;;8.60;7.85;;;19.80;99.90;;;;;;5080685;28;20201;-94
2022/07/28 05:33:43;;;;;;;7.45;6.70;;;20.10;99.90;;;;;;5080856;28;20154;-93
2022/07/28 05:36:21;;;;;;;5.50;5.10;;;20.40;99.90;;;;;;5080752;28;20210;-94
2022/07/28 05:39:02;;;;;;;;;;;;;;;;;;;;;
2022/07/28 05:41:37;;;;;;;10.75;9.38;;;20.70;99.90;;;;;;5080973;28;20155;-93
2022/07/28 05:44:46;;;;;;;;;;;;;;;;;;;;;
2022/07/28 05:47:46;;;;;;;22.83;21.55;;;21.70;99.90;;;;;;5080734;28;20143;-94
2022/07/28 05:50:32;;;;;;;21.15;19.90;;;22.40;99.90;;;;;;5033458;28;20187;-94
2022/07/28 05:53:01;;;;;;;21.38;20.17;;;22.70;99.90;;;;;;5040159;28;20152;-93
2022/07/28 05:55:48;;;;;;;;;;;;;;;;;;;;;
2022/07/28 05:58:20;;;;;;;10.40;9.60;;;22.70;99.90;;;;;;5040057;28;20434;-92
2022/07/28 06:00:48;;;;;;;8.30;7.47;;;22.50;99.90;;;;;;5040039;28;20187;-93
2022/07/28 06:03:23;;;;;;;29.35;27.85;;;21.90;99.90;;;;;;5040227;28;20171;-93
2022/07/28 06:06:07;;;;;;;43.58;41.30;;;21.60;99.90;;;;;;5039730;28;20148;-93
2022/07/28 06:08:33;;;;;;;37.28;35.38;;;21.60;99.90;;;;;;5040359;28;20212;-93
2022/07/28 06:11:10;;;;;;;19.75;18.58;;;21.80;99.90;;;;;;5040042;28;20191;-95
2022/07/28 06:13:55;;;;;;;;;;;;;;;;;;;;;
2022/07/28 06:17:05;;;;;;;6.47;5.88;;;22.50;99.90;;;;;;5040135;28;20155;-93
2022/07/28 06:19:31;;;;;;;6.90;6.30;;;22.60;99.90;;;;;;5038981;28;20255;-93
2022/07/28 06:21:59;;;;;;;9.70;6.57;;;22.80;99.90;;;;;;5040015;28;20207;-94
2022/07/28 06:24:40;;;;;;;10.27;7.30;;;23.50;99.90;;;;;;5039804;28;20213;-94
2022/07/28 06:27:31;;;;;;;7.95;7.25;;;24.20;99.90;;;;;;5039845;28;20155;-93
2022/07/28 06:30:06;;;;;;;13.20;12.07;;;24.80;99.60;;;;;;5039920;28;20156;-91
2022/07/28 06:33:11;;;;;;;7.13;6.45;;;25.30;99.00;;;;;;5039778;28;20183;-93
2022/07/28 06:35:39;;;;;;;6.13;5.68;;;25.90;97.40;;;;;;5040221;28;20178;-94
2022/07/28 06:38:16;;;;;;;5.10;4.70;;;26.40;95.20;;;;;;5039532;28;20144;-93
2022/07/28 06:40:43;;;;;;;5.85;5.35;;;26.20;94.60;;;;;;5039576;28;20196;-94
2022/07/28 06:43:14;;;;;;;5.70;5.30;;;26.20;94.40;;;;;;5039686;28;20142;-95
2022/07/28 06:45:45;;;;;;;7.88;7.18;;;26.20;94.10;;;;;;5039641;28;20144;-93
2022/07/28 06:48:44;;;;;;;8.20;7.68;;;26.70;93.90;;;;;;5039266;28;20183;-94
2022/07/28 06:51:22;;;;;;;6.75;6.18;;;26.80;93.00;;;;;;5038813;28;20215;-93
2022/07/28 06:53:56;;;;;;;8.38;5.38;;;26.20;93.40;;;;;;5038831;28;20250;-93
2022/07/28 06:56:25;;;;;;;5.47;5.05;;;25.80;94.00;;;;;;5038231;28;20206;-93
2022/07/28 06:59:02;;;;;;;6.05;5.50;;;25.90;94.00;;;;;;5019910;28;20223;-81
2022/07/28 07:01:28;;;;;;;7.40;6.90;;;25.90;94.10;;;;;;5015580;28;20196;-81
2022/07/28 07:03:54;;;;;;;11.05;10.38;;;26.50;93.60;;;;;;5015623;28;20179;-81
2022/07/28 07:06:19;;;;;;;14.43;13.32;;;27.10;92.10;;;;;;5014499;28;20195;-81
2022/07/28 07:08:46;;;;;;;8.50;7.93;;;27.20;92.20;;;;;;5014378;28;20176;-81
2022/07/28 07:11:12;;;;;;;7.68;7.18;;;27.70;91.20;;;;;;5053733;22;20262;-78
2022/07/28 07:13:38;;;;;;;8.75;5.82;;;27.70;91.40;;;;;;5016255;28;20180;-79
2022/07/28 07:16:04;;;;;;;7.88;7.15;;;28.10;90.90;;;;;;5015843;28;20296;-79
2022/07/28 07:18:29;;;;;;;7.03;6.55;;;28.10;90.50;;;;;;5017590;28;20221;-79
2022/07/28 07:20:56;;;;;;;6.50;6.10;;;27.90;90.30;;;;;;5016565;28;20226;-80
2022/07/28 07:23:22;;;;;;;7.82;6.00;;;28.10;89.80;;;;;;5017000;28;20179;-81
2022/07/28 07:25:48;;;;;;;9.55;8.80;;;28.30;90.00;;;;;;5018504;28;20261;-80
2022/07/28 07:28:14;;;;;;;11.20;10.38;;;28.00;90.20;;;;;;5023854;28;20182;-81
2022/07/28 07:30:39;;;;;;;8.52;7.70;;;27.50;90.10;;;;;;5019824;28;20695;-82
2022/07/28 07:33:05;;;;;;;8.63;7.93;;;26.80;91.20;;;;;;5018362;28;20215;-77
2022/07/28 07:35:32;;;;;;;12.63;11.93;;;25.80;93.10;;;;;;5015740;28;20242;-81
2022/07/28 07:37:58;;;;;;;11.20;10.48;;;25.30;94.20;;;;;;5015374;28;20180;-78
2022/07/28 07:40:24;;;;;;;10.13;9.52;;;25.50;94.00;;;;;;5014664;28;20226;-77
2022/07/28 07:42:49;;;;;;;9.85;9.05;;;25.70;93.60;;;;;;5015007;28;20203;-78
2022/07/28 07:45:15;;;;;;;10.23;9.43;;;26.00;93.60;;;;;;5014650;28;20214;-78
2022/07/28 07:47:41;;;;;;;12.65;11.13;;;26.10;93.30;;;;;;5014752;28;20191;-77
2022/07/28 07:50:07;;;;;;;10.23;9.38;;;25.90;94.00;;;;;;5018274;28;20208;-80
2022/07/28 07:52:33;;;;;;;10.50;9.70;;;26.20;93.40;;;;;;5017005;28;20176;-78
2022/07/28 07:54:59;;;;;;;6.65;6.20;;;26.70;93.00;;;;;;5014045;28;20592;-78
2022/07/28 07:57:24;;;;;;;8.45;7.43;;;27.30;92.00;;;;;;5012993;28;20186;-79
2022/07/28 07:59:50;;;;;;;10.30;9.40;;;27.40;91.70;;;;;;5012320;28;20218;-78
2022/07/28 08:02:16;;;;;;;13.13;12.13;;;27.60;92.10;;;;;;5014216;28;20180;-77
2022/07/28 08:04:42;;;;;;;13.63;12.50;;;27.90;91.30;;;;;;5015490;28;20222;-79
2022/07/28 08:07:07;;;;;;;12.88;11.85;;;27.60;91.40;;;;;;5013969;28;20182;-79
2022/07/28 08:09:33;;;;;;;11.80;11.00;;;27.60;91.20;;;;;;5013866;28;20183;-79
2022/07/28 08:11:59;;;;;;;12.02;11.13;;;27.50;91.20;;;;;;5014992;28;20270;-78
2022/07/28 08:14:25;;;;;;;10.20;8.75;;;27.70;91.80;;;;;;5016818;28;20191;-76
2022/07/28 08:16:51;;;;;;;9.43;8.77;;;28.30;90.60;;;;;;5017004;28;20210;-77
2022/07/28 08:19:17;;;;;;;8.60;7.95;;;28.10;90.90;;;;;;5022797;28;20218;-79
2022/07/28 08:21:43;;;;;;;8.10;7.63;;;28.30;90.60;;;;;;5019613;28;20204;-81
2022/07/28 08:24:08;;;;;;;9.38;8.68;;;28.00;90.50;;;;;;5019243;28;20214;-80
2022/07/28 08:26:34;;;;;;;11.35;10.52;;;27.70;91.20;;;;;;5020150;28;20175;-80
2022/07/28 08:29:00;;;;;;;12.02;11.32;;;27.60;91.20;;;;;;5020816;28;20191;-80
2022/07/28 08:31:26;;;;;;;11.82;10.82;;;27.20;91.40;;;;;;5019754;28;20688;-78
2022/07/28 08:33:52;;;;;;;11.65;10.73;;;27.40;91.80;;;;;;5018625;28;20191;-78
2022/07/28 08:36:18;;;;;;;10.27;8.65;;;28.10;91.00;;;;;;5018385;28;20179;-79
2022/07/28 08:38:44;;;;;;;7.90;7.32;;;28.40;90.20;;;;;;5015954;28;20587;-78
2022/07/28 08:41:28;;;;;;;10.48;9.38;;;28.60;90.30;;;;;;5017881;28;20203;-78
2022/07/28 08:43:55;;;;;;;11.82;11.07;;;28.70;89.20;;;;;;5023548;28;20207;-77
2022/07/28 08:46:21;;;;;;;9.05;7.93;;;28.10;89.60;;;;;;5021514;28;20175;-78
2022/07/28 08:48:49;;;;;;;8.93;8.15;;;28.10;90.40;;;;;;5021091;28;20176;-78
2022/07/28 08:51:15;;;;;;;10.77;10.00;;;28.40;90.20;;;;;;5018283;28;20699;-77
2022/07/28 08:53:42;;;;;;;9.77;9.20;;;28.50;89.50;;;;;;5020956;28;20275;-79
2022/07/28 08:56:19;;;;;;;10.60;9.85;;;28.40;89.20;;;;;;5017224;28;20610;-79
2022/07/28 08:58:44;;;;;;;9.07;8.40;;;28.50;89.30;;;;;;5018153;28;20190;-78
2022/07/28 09:01:10;;;;;;;13.10;12.10;;;28.10;89.50;;;;;;5017086;28;20195;-79
2022/07/28 09:03:38;;;;;;;13.82;12.73;;;27.80;90.70;;;;;;5024364;28;20180;-78
2022/07/28 09:06:04;;;;;;;14.30;13.18;;;27.90;90.30;;;;;;5022338;28;20180;-81
2022/07/28 09:08:30;;;;;;;12.73;11.82;;;28.20;90.00;;;;;;5018007;28;20194;-80
2022/07/28 09:10:56;;;;;;;12.18;11.13;;;28.20;89.60;;;;;;5020910;28;20691;-80
2022/07/28 09:13:22;;;;;;;13.82;12.65;;;28.30;89.50;;;;;;5017673;28;20188;-82
2022/07/28 09:15:47;;;;;;;9.25;8.45;;;28.40;90.00;;;;;;5018089;28;20680;-78
2022/07/28 09:18:15;;;;;;;13.98;12.98;;;28.60;88.30;;;;;;5016854;28;20191;-82
2022/07/28 09:20:42;;;;;;;8.13;7.63;;;28.50;90.20;;;;;;5017698;28;20307;-78
2022/07/28 09:23:09;;;;;;;9.95;9.15;;;29.30;87.30;;;;;;5016996;28;20176;-79
2022/07/28 09:25:35;;;;;;;13.77;12.85;;;29.70;86.20;;;;;;5016365;28;20172;-81
2022/07/28 09:28:07;;;;;;;18.02;16.73;;;29.30;86.30;;;;;;5016119;28;20183;-84
2022/07/28 09:30:40;;;;;;;19.88;18.65;;;29.50;85.80;;;;;;5015682;28;20207;-81
2022/07/28 09:33:20;;;;;;;27.67;25.98;;;30.20;84.80;;;;;;5019567;28;20184;-81
2022/07/28 09:35:51;;;;;;;20.42;18.45;;;31.10;82.30;;;;;;5023441;28;20222;-78
2022/07/28 09:38:20;;;;;;;12.05;11.10;;;31.70;82.20;;;;;;5017497;28;20194;-80
2022/07/28 09:41:00;;;;;;;12.68;11.73;;;31.70;78.50;;;;;;5015605;28;20815;-80
2022/07/28 09:43:44;;;;;;;18.25;16.80;;;30.40;79.90;;;;;;5018097;28;20194;-77
2022/07/28 09:46:16;;;;;;;13.18;12.25;;;29.90;82.70;;;;;;5022653;28;20191;-78
2022/07/28 09:48:48;;;;;;;19.33;17.25;;;29.60;82.80;;;;;;5016720;28;20714;-78
2022/07/28 09:51:16;;;;;;;18.20;17.10;;;29.40;83.20;;;;;;5017169;28;20223;-82
2022/07/28 09:53:42;;;;;;;20.10;18.90;;;29.50;83.30;;;;;;5016026;28;20175;-79
2022/07/28 09:56:09;;;;;;;17.83;16.83;;;29.20;84.60;;;;;;5017075;28;20211;-79
2022/07/28 09:58:36;;;;;;;21.92;20.50;;;29.20;84.30;;;;;;5014997;28;20172;-79
2022/07/28 10:01:12;;;;;;;16.58;15.60;;;29.70;82.70;;;;;;5016563;28;20269;-82
2022/07/28 10:03:39;;;;;;;11.77;11.18;;;30.30;81.50;;;;;;5020641;28;20207;-78
2022/07/28 10:06:10;;;;;;;13.20;12.18;;;31.00;79.40;;;;;;5022929;28;20183;-80
2022/07/28 10:08:40;;;;;;;11.63;10.80;;;30.30;80.00;;;;;;5025091;28;20184;-81
2022/07/28 10:11:07;;;;;;;11.90;10.95;;;30.40;80.40;;;;;;5020141;28;20215;-80
2022/07/28 10:13:33;;;;;;;10.10;9.18;;;30.90;79.30;;;;;;5016575;28;20199;-82
2022/07/28 10:16:10;;;;;;;10.75;9.73;;;31.90;78.50;;;;;;5017226;28;20175;-82
2022/07/28 10:18:37;;;;;;;13.48;12.43;;;32.60;73.80;;;;;;5014975;28;20211;-79
2022/07/28 10:21:08;;;;;;;9.48;8.75;;;32.10;74.30;;;;;;5016927;28;20208;-82
2022/07/28 10:23:37;;;;;;;11.75;10.75;;;31.70;75.80;;;;;;5018032;28;20656;-77
2022/07/28 10:26:08;;;;;;;11.52;10.82;;;31.30;75.30;;;;;;5017244;28;20207;-80
2022/07/28 10:28:37;;;;;;;10.40;9.45;;;31.00;76.20;;;;;;5016222;28;20184;-80
2022/07/28 10:31:07;;;;;;;8.80;8.20;;;31.50;76.40;;;;;;5016234;28;20206;-83
2022/07/28 10:33:36;;;;;;;13.43;12.70;;;31.90;74.40;;;;;;5016225;28;20648;-79
2022/07/28 10:36:03;;;;;;;10.45;8.73;;;31.60;73.60;;;;;;5017576;28;20180;-81
2022/07/28 10:38:34;;;;;;;16.52;15.55;;;31.50;74.60;;;;;;5015322;28;20191;-84
2022/07/28 10:41:07;;;;;;;19.92;18.63;;;32.00;73.10;;;;;;5016100;28;20226;-80
2022/07/28 10:43:34;;;;;;;22.13;20.77;;;31.80;72.10;;;;;;5015619;28;20672;-82
2022/07/28 10:46:03;;;;;;;16.95;15.68;;;32.70;70.90;;;;;;5015375;28;20188;-80
2022/07/28 10:48:30;;;;;;;16.45;15.43;;;33.30;68.80;;;;;;5014859;28;20573;-83
2022/07/28 10:50:58;;;;;;;12.10;11.27;;;33.10;69.00;;;;;;5016039;28;20195;-83
2022/07/28 10:53:36;;;;;;;19.20;17.83;;;33.60;67.40;;;;;;5015152;28;20186;-83
2022/07/28 10:56:08;;;;;;;8.57;7.82;;;33.40;67.60;;;;;;5014741;28;20274;-81
2022/07/28 10:58:49;;;;;;;17.50;16.48;;;32.90;67.70;;;;;;5015855;28;20187;-77
2022/07/28 11:01:48;;;;;;;21.42;19.98;;;32.10;68.50;;;;;;5024877;28;20211;-77
2022/07/28 11:04:47;;;;;;;26.98;25.42;;;31.30;70.80;;;;;;5010302;28;20733;-79
2022/07/28 11:07:18;;;;;;;26.33;24.83;;;31.50;70.90;;;;;;5020012;28;20186;-80
2022/07/28 11:09:48;;;;;;;16.60;15.50;;;31.80;70.30;;;;;;5018507;28;20353;-80
2022/07/28 11:12:14;;;;;;;13.93;13.07;;;31.80;68.50;;;;;;5016578;28;20187;-78
2022/07/28 11:14:42;;;;;;;17.67;16.60;;;31.90;68.50;;;;;;5018366;28;20218;-80
2022/07/28 11:17:09;;;;;;;26.60;24.88;;;31.10;67.70;;;;;;5023770;28;20184;-79
2022/07/28 11:19:44;;;;;;;16.00;15.05;;;31.10;68.60;;;;;;4999849;28;20253;-79
2022/07/28 11:22:13;;;;;;;11.55;10.85;;;31.90;66.10;;;;;;5014781;28;20183;-79
2022/07/28 11:24:57;;;;;;;11.13;10.35;;;32.10;65.00;;;;;;5016020;28;20188;-81
2022/07/28 11:27:39;;;;;;;9.90;9.05;;;31.80;65.80;;;;;;5014042;28;20184;-79
2022/07/28 11:30:10;;;;;;;9.82;9.30;;;32.20;65.40;;;;;;5014651;28;20758;-80
2022/07/28 11:32:54;;;;;;;15.10;14.30;;;33.10;64.10;;;;;;5015103;28;20207;-82
2022/07/28 11:35:21;;;;;;;40.15;37.95;;;34.00;61.30;;;;;;5018594;28;20247;-80
2022/07/28 11:38:02;;;;;;;114.97;109.28;;;34.00;60.90;;;;;;5018638;28;20179;-81
2022/07/28 11:40:46;;;;;;;141.68;134.85;;;34.20;59.70;;;;;;5015231;28;20243;-78
2022/07/28 11:43:25;;;;;;;342.73;324.67;;;34.50;59.80;;;;;;5016530;28;20187;-80
2022/07/28 11:46:00;;;;;;;419.48;396.52;;;34.90;58.40;;;;;;5014566;28;20241;-76
2022/07/28 11:48:28;;;;;;;417.52;394.70;;;34.80;55.10;;;;;;5013140;28;20260;-81
2022/07/28 11:51:03;;;;;;;394.42;373.05;;;34.00;56.20;;;;;;5013727;28;20199;-79
2022/07/28 11:53:41;;;;;;;398.85;377.05;;;34.00;56.60;;;;;;5014578;28;20194;-82
2022/07/28 11:56:23;;;;;;;424.25;401.05;;;34.20;56.30;;;;;;5016872;28;20564;-78
2022/07/28 11:58:58;;;;;;;429.70;405.98;;;34.60;55.80;;;;;;5015441;28;20674;-81
2022/07/28 12:01:24;;;;;;;430.35;406.55;;;34.70;55.80;;;;;;5001346;28;20314;-80
2022/07/28 12:03:52;;;;;;;424.05;400.63;;;35.50;55.30;;;;;;5021476;28;20371;-78
2022/07/28 12:06:21;;;;;;;445.83;421.05;;;35.00;54.50;;;;;;5019388;28;20614;-83
2022/07/28 12:08:57;;;;;;;419.80;396.63;;;34.20;56.00;;;;;;5016720;28;20202;-82
2022/07/28 12:11:31;;;;;;;450.75;425.73;;;34.00;55.90;;;;;;5017966;28;20222;-80
2022/07/28 12:14:12;;;;;;;288.55;273.98;;;33.60;56.20;;;;;;5015766;28;20190;-83
2022/07/28 12:16:40;;;;;;;88.82;84.30;;;32.50;57.70;;;;;;5015007;28;20193;-79
2022/07/28 12:19:07;;;;;;;122.00;116.15;;;32.30;58.60;;;;;;5014486;28;20614;-77
2022/07/28 12:21:36;;;;;;;203.75;193.63;;;33.30;56.90;;;;;;5017282;28;20199;-82
2022/07/28 12:24:02;;;;;;;377.67;357.23;;;33.90;56.40;;;;;;5015441;28;20176;-81
2022/07/28 12:26:32;;;;;;;428.13;404.17;;;34.60;54.60;;;;;;5015151;28;20183;-81
2022/07/28 12:28:59;;;;;;;455.75;430.25;;;34.70;54.50;;;;;;5018077;28;20230;-77
2022/07/28 12:31:29;;;;;;;436.33;412.15;;;34.20;54.60;;;;;;5025309;28;20271;-79
2022/07/28 12:33:55;;;;;;;443.73;418.55;;;34.20;55.10;;;;;;5023966;28;20223;-78
2022/07/28 12:36:23;;;;;;;436.13;411.77;;;34.70;53.70;;;;;;5015224;28;20186;-84
2022/07/28 12:38:50;;;;;;;408.83;386.63;;;35.00;53.50;;;;;;5013796;28;20184;-80
2022/07/28 12:41:16;;;;;;;314.92;298.65;;;35.20;53.30;;;;;;5014841;28;20196;-81
2022/07/28 12:43:53;;;;;;;207.23;197.13;;;36.00;52.50;;;;;;5015940;28;20179;-81
2022/07/28 12:46:37;;;;;;;209.43;198.95;;;36.80;51.70;;;;;;5015169;28;20205;-82
2022/07/28 12:49:03;;;;;;;228.75;217.48;;;37.00;50.90;;;;;;5014044;28;20398;-80
2022/07/28 12:51:37;;;;;;;168.10;159.75;;;36.30;51.50;;;;;;5015717;28;20199;-80
2022/07/28 12:54:05;;;;;;;169.25;161.00;;;37.00;49.80;;;;;;5016040;28;20182;-82
2022/07/28 12:56:42;;;;;;;145.07;138.07;;;38.00;48.80;;;;;;5015230;28;20180;-81
2022/07/28 12:59:09;;;;;;;155.35;147.82;;;38.20;47.30;;;;;;5019616;28;20215;-79
2022/07/28 13:01:55;;;;;;;133.02;126.57;;;37.30;48.20;;;;;;5016904;28;20196;-77
2022/07/28 13:04:40;;;;;;;177.90;169.23;;;36.80;48.20;;;;;;5014491;28;20180;-79